Time;durP1;ratioP1;P1;durP2;ratioP2;P2;SDS_P1;SDS_P2;PMS_P1;PMS_P2;Temp;Humidity;BMP_temperature;BMP_pressure;BME280_temperature;BME280_humidity;BME280_pressure;Samples;Min_cycle;Max_cycle;Signal;HPM_P1;HPM_P2
2021/09/01 00:00:47;;;;;;;1999.90;999.90;;;;;;;13.98;98.86;95742.44;5012053;28;20686;-70
2021/09/01 00:03:14;;;;;;;1999.90;999.90;;;;;;;14.00;98.90;95734.25;5011964;28;20207;-70
2021/09/01 00:05:41;;;;;;;1999.90;999.90;;;;;;;14.04;98.66;95740.44;5011706;28;20195;-70
2021/09/01 00:08:08;;;;;;;1999.90;999.90;;;;;;;14.01;98.40;95733.97;5012311;28;20687;-70
2021/09/01 00:10:35;;;;;;;1999.90;999.90;;;;;;;14.00;98.59;95736.88;5010538;28;20262;-71
2021/09/01 00:13:03;;;;;;;1999.90;999.90;;;;;;;13.91;97.76;95744.72;5012320;28;20222;-71
2021/09/01 00:15:30;;;;;;;1999.90;999.90;;;;;;;13.88;98.11;95749.81;5012381;28;20210;-71
2021/09/01 00:17:59;;;;;;;1999.90;999.90;;;;;;;13.79;98.72;95755.81;5029084;28;20204;-71
2021/09/01 00:20:26;;;;;;;1999.90;999.90;;;;;;;13.87;98.24;95750.88;5032035;28;20229;-70
2021/09/01 00:22:54;;;;;;;1999.90;999.90;;;;;;;13.85;98.51;95763.50;5031574;28;20197;-71
2021/09/01 00:25:22;;;;;;;1999.90;999.90;;;;;;;13.72;99.15;95760.72;5031435;28;20198;-70
2021/09/01 00:27:49;;;;;;;1999.90;999.90;;;;;;;13.67;99.86;95749.63;5031349;28;20624;-71
2021/09/01 00:30:16;;;;;;;1999.90;999.90;;;;;;;13.66;99.74;95755.94;5031866;28;20215;-70
2021/09/01 00:32:44;;;;;;;1999.90;999.90;;;;;;;13.60;100.00;95757.91;5031761;28;20194;-71
2021/09/01 00:35:13;;;;;;;1999.90;999.90;;;;;;;13.53;99.04;95762.84;5031483;28;20736;-72
2021/09/01 00:37:40;;;;;;;1999.90;999.90;;;;;;;13.41;98.43;95775.69;5031247;28;20285;-71
2021/09/01 00:40:08;;;;;;;1999.90;999.90;;;;;;;13.39;99.14;95777.09;5031107;28;21025;-71
2021/09/01 00:42:36;;;;;;;1999.90;999.90;;;;;;;13.42;99.29;95772.03;5031103;28;20674;-71
2021/09/01 00:45:06;;;;;;;1999.90;999.90;;;;;;;13.39;99.72;95767.41;5031020;28;20204;-71
2021/09/01 00:47:35;;;;;;;1999.90;999.90;;;;;;;13.40;100.00;95774.16;5031156;28;20218;-71
2021/09/01 00:50:03;;;;;;;1999.90;999.90;;;;;;;13.43;100.00;95773.56;5031357;28;20206;-70
2021/09/01 00:52:33;;;;;;;1999.90;999.90;;;;;;;13.46;100.00;95775.56;5030669;28;20194;-71
2021/09/01 00:55:01;;;;;;;1999.90;999.90;;;;;;;13.45;99.86;95781.09;5031096;28;20276;-70
2021/09/01 00:57:28;;;;;;;1999.90;999.90;;;;;;;13.40;99.23;95774.16;5030567;28;20206;-71
2021/09/01 00:59:56;;;;;;;1999.90;999.90;;;;;;;13.31;99.35;95778.59;5030557;28;20208;-71
2021/09/01 01:02:24;;;;;;;1999.90;999.90;;;;;;;13.20;99.33;95774.75;5030660;28;20201;-72
2021/09/01 01:04:51;;;;;;;1999.90;999.90;;;;;;;13.17;99.02;95776.09;5030989;28;20288;-70
2021/09/01 01:07:20;;;;;;;1999.90;999.90;;;;;;;13.14;99.78;95781.16;5030711;28;20230;-71
2021/09/01 01:09:49;;;;;;;1999.90;999.90;;;;;;;13.12;100.00;95788.50;5028025;28;20229;-71
2021/09/01 01:12:20;;;;;;;1999.90;999.90;;;;;;;13.15;100.00;95780.09;5010799;28;20203;-70
2021/09/01 01:14:49;;;;;;;1999.90;999.90;;;;;;;13.32;100.00;95773.06;5010835;28;20256;-70
2021/09/01 01:17:18;;;;;;;1999.90;999.90;;;;;;;13.31;100.00;95774.13;5021915;28;20198;-71
2021/09/01 01:19:47;;;;;;;1999.90;999.90;;;;;;;13.32;100.00;95772.31;5030161;28;20631;-70
2021/09/01 01:22:15;;;;;;;1999.90;999.90;;;;;;;13.38;100.00;95775.53;5029974;28;20198;-72
2021/09/01 01:24:51;;;;;;;1999.90;999.90;;;;;;;13.42;100.00;95773.84;5030089;28;20645;-71
2021/09/01 01:27:28;;;;;;;1999.90;999.90;;;;;;;13.52;99.61;95771.72;5030346;28;20213;-71
2021/09/01 01:29:56;;;;;;;1999.90;999.90;;;;;;;13.52;99.45;95770.97;5030339;28;20190;-71
2021/09/01 01:32:24;;;;;;;1999.90;999.90;;;;;;;13.39;99.94;95770.03;5020700;28;20198;-71
2021/09/01 01:34:51;;;;;;;1999.90;999.90;;;;;;;13.32;100.00;95767.09;5010332;28;20252;-70
2021/09/01 01:37:18;;;;;;;1999.90;999.90;;;;;;;13.34;99.81;95770.94;5010112;28;20202;-71
2021/09/01 01:39:45;;;;;;;1999.90;999.90;;;;;;;13.28;100.00;95766.94;5010299;28;20201;-71
2021/09/01 01:42:13;;;;;;;1999.90;999.90;;;;;;;13.17;100.00;95759.66;5010296;28;20563;-69
2021/09/01 01:44:42;;;;;;;1999.90;999.90;;;;;;;12.90;100.00;95777.03;5009780;28;20199;-70
2021/09/01 01:47:09;;;;;;;1999.90;999.90;;;;;;;13.05;99.93;95767.28;5009541;28;20236;-69
2021/09/01 01:49:36;;;;;;;1999.90;999.90;;;;;;;13.11;100.00;95760.84;5010937;28;20282;-71
2021/09/01 01:52:04;;;;;;;1999.90;999.90;;;;;;;12.79;100.00;95767.16;5010373;28;20234;-71
2021/09/01 01:54:31;;;;;;;1999.90;999.90;;;;;;;12.87;100.00;95750.78;5010466;28;20190;-71
2021/09/01 01:56:59;;;;;;;1999.90;999.90;;;;;;;12.74;100.00;95752.44;5010357;28;20238;-70
2021/09/01 01:59:26;;;;;;;1999.90;999.90;;;;;;;12.79;100.00;95746.31;5010540;28;20206;-71
2021/09/01 02:01:54;;;;;;;1999.90;999.90;;;;;;;12.95;100.00;95761.25;5008124;28;20531;-70
2021/09/01 02:04:21;;;;;;;1999.90;999.90;;;;;;;12.95;100.00;95750.81;5009146;28;20580;-70
2021/09/01 02:06:49;;;;;;;1999.90;999.90;;;;;;;12.80;100.00;95755.69;5008938;28;20580;-70
2021/09/01 02:09:16;;;;;;;1999.90;999.90;;;;;;;12.87;100.00;95756.78;5008683;28;20252;-70
2021/09/01 02:11:43;;;;;;;1999.90;999.90;;;;;;;12.90;100.00;95755.41;5007102;28;20190;-70
2021/09/01 02:14:10;;;;;;;1999.90;999.90;;;;;;;12.92;100.00;95758.47;5029039;28;20202;-70
2021/09/01 02:16:38;;;;;;;1999.90;999.90;;;;;;;13.05;100.00;95759.47;5023665;28;20281;-70
2021/09/01 02:19:07;;;;;;;1999.90;999.90;;;;;;;12.94;100.00;95766.78;5011364;28;20215;-70
2021/09/01 02:21:35;;;;;;;1999.90;999.90;;;;;;;13.11;100.00;95760.84;5010491;28;20198;-69
2021/09/01 02:24:02;;;;;;;1999.90;999.90;;;;;;;13.10;100.00;95756.72;5009775;28;20202;-70
2021/09/01 02:26:29;;;;;;;1999.90;999.90;;;;;;;13.18;100.00;95758.59;5010073;28;20198;-70
2021/09/01 02:28:56;;;;;;;1999.90;999.90;;;;;;;13.20;100.00;95759.09;5009870;28;20416;-70
2021/09/01 02:31:24;;;;;;;1999.90;999.90;;;;;;;13.20;100.00;95759.09;5009826;28;20206;-70
2021/09/01 02:33:51;;;;;;;1999.90;999.90;;;;;;;13.28;99.75;95766.94;5010235;28;20198;-71
2021/09/01 02:36:20;;;;;;;1999.90;999.90;;;;;;;13.24;100.00;95765.22;5013744;28;20697;-70
2021/09/01 02:38:47;;;;;;;1999.90;999.90;;;;;;;13.32;100.00;95761.88;5013579;28;20268;-69
2021/09/01 02:41:15;;;;;;;1999.90;999.90;;;;;;;13.35;100.00;95758.63;5014179;28;20209;-69
2021/09/01 02:43:42;;;;;;;1999.90;999.90;;;;;;;13.36;99.90;95768.00;5014130;28;20194;-73
2021/09/01 02:46:09;;;;;;;1999.90;999.90;;;;;;;13.34;99.74;95762.34;5014233;28;20301;-74
2021/09/01 02:48:36;;;;;;;1999.90;999.90;;;;;;;13.33;99.64;95763.41;5013314;28;20222;-71
2021/09/01 02:51:03;;;;;;;1999.90;999.90;;;;;;;13.30;99.96;95759.53;5014121;28;20199;-73
2021/09/01 02:53:32;;;;;;;1999.90;999.90;;;;;;;13.27;100.00;95767.22;5013302;28;20214;-72
2021/09/01 02:55:59;;;;;;;1999.90;999.90;;;;;;;13.18;100.00;95767.19;5013251;28;20288;-76
2021/09/01 02:58:26;;;;;;;1999.90;999.90;;;;;;;13.03;100.00;95767.56;5013266;28;20257;-73
2021/09/01 03:00:53;;;;;;;1999.90;999.90;;;;;;;13.08;100.00;95771.88;5013040;28;20198;-72
2021/09/01 03:03:20;;;;;;;1999.90;999.90;;;;;;;13.12;100.00;95778.06;5012999;28;20199;-69
2021/09/01 03:05:47;;;;;;;1999.90;999.90;;;;;;;13.11;100.00;95777.28;5012823;28;20199;-72
2021/09/01 03:08:15;;;;;;;1999.90;999.90;;;;;;;13.27;100.00;95777.66;5013386;28;20222;-72
2021/09/01 03:10:44;;;;;;;1999.90;999.90;;;;;;;13.24;100.00;95783.50;5013367;28;20736;-73
2021/09/01 03:13:11;;;;;;;1999.90;999.90;;;;;;;13.19;100.00;95787.00;5013148;28;21014;-75
2021/09/01 03:15:38;;;;;;;1999.90;999.90;;;;;;;13.12;99.26;95789.28;5012563;28;20199;-72
2021/09/01 03:18:05;;;;;;;1999.90;999.90;;;;;;;13.02;98.54;95793.97;5030337;28;20666;-71
2021/09/01 03:20:32;;;;;;;1999.90;999.90;;;;;;;12.97;98.39;95794.09;5032093;28;20208;-71
2021/09/01 03:23:00;;;;;;;1999.90;999.90;;;;;;;12.95;98.38;95789.94;5032254;28;20264;-71
2021/09/01 03:25:27;;;;;;;1999.90;999.90;;;;;;;12.92;98.85;95790.56;5032164;28;20206;-70
2021/09/01 03:27:55;;;;;;;1999.90;999.90;;;;;;;12.96;99.29;95795.94;5032099;28;20279;-72
2021/09/01 03:30:23;;;;;;;1999.90;999.90;;;;;;;12.84;99.34;95801.72;5032702;28;20692;-75
2021/09/01 03:32:50;;;;;;;1999.90;999.90;;;;;;;12.78;99.12;95802.91;5032725;28;20197;-74
2021/09/01 03:35:17;;;;;;;1999.90;999.90;;;;;;;12.70;99.00;95801.00;5025768;28;20580;-74
2021/09/01 03:37:44;;;;;;;1999.90;999.90;;;;;;;12.69;99.88;95801.31;5005141;28;20338;-79
2021/09/01 03:40:12;;;;;;;1999.90;999.90;;;;;;;12.61;99.59;95810.63;4993250;28;20217;-73
2021/09/01 03:42:40;;;;;;;1999.90;999.90;;;;;;;12.38;99.58;95816.91;4992698;28;20302;-72
2021/09/01 03:45:10;;;;;;;1999.90;999.90;;;;;;;12.40;99.88;95799.91;4992530;28;20222;-72
2021/09/01 03:47:38;;;;;;;1999.90;999.90;;;;;;;12.30;100.00;95807.22;4993330;28;20278;-73
2021/09/01 03:50:08;;;;;;;1999.90;999.90;;;;;;;12.28;100.00;95806.72;5007859;28;20210;-73
2021/09/01 03:52:35;;;;;;;1999.90;999.90;;;;;;;12.32;100.00;95812.88;5012923;28;20195;-74
2021/09/01 03:55:02;;;;;;;1999.90;999.90;;;;;;;12.45;100.00;95806.88;5012586;28;20206;-74
2021/09/01 03:57:29;;;;;;;1999.90;999.90;;;;;;;12.24;99.82;95816.19;5010862;28;20206;-71
2021/09/01 03:59:57;;;;;;;1999.90;999.90;;;;;;;12.01;100.00;95812.78;5006724;28;20207;-75
2021/09/01 04:02:25;;;;;;;1999.90;999.90;;;;;;;11.85;100.00;95819.41;5011666;28;20681;-76
2021/09/01 04:04:52;;;;;;;1999.90;999.90;;;;;;;11.93;100.00;95810.88;5012533;28;20214;-76
2021/09/01 04:07:20;;;;;;;1999.90;999.90;;;;;;;12.13;100.00;95812.28;5001804;28;20223;-75
2021/09/01 04:09:48;;;;;;;1999.90;999.90;;;;;;;12.29;100.00;95809.03;5007609;28;20337;-76
2021/09/01 04:12:15;;;;;;;1999.90;999.90;;;;;;;12.37;100.00;95816.16;5010676;28;20206;-75
2021/09/01 04:14:42;;;;;;;1999.90;999.90;;;;;;;12.54;100.00;95815.50;5010390;28;20194;-75
2021/09/01 04:17:09;;;;;;;1999.90;999.90;;;;;;;12.76;100.00;95814.69;5021230;28;20229;-75
2021/09/01 04:19:38;;;;;;;1999.90;999.90;;;;;;;12.74;100.00;95807.19;5030887;28;20198;-76
2021/09/01 04:22:05;;;;;;;1999.90;999.90;;;;;;;12.81;100.00;95804.91;5030841;28;20201;-76
2021/09/01 04:24:33;;;;;;;1999.90;999.90;;;;;;;12.95;100.00;95810.81;5031368;28;20202;-74
2021/09/01 04:27:00;;;;;;;1999.90;999.90;;;;;;;13.43;100.00;95817.19;5031579;28;20197;-74
2021/09/01 04:29:28;;;;;;;1999.90;999.90;;;;;;;13.89;99.38;95817.44;5031790;28;20198;-74
2021/09/01 04:31:55;;;;;;;1999.90;999.90;;;;;;;14.07;97.40;95823.44;5031658;28;20201;-74
2021/09/01 04:34:22;;;;;;;1999.90;999.90;;;;;;;14.52;95.28;95826.53;5032224;28;20827;-74
2021/09/01 04:36:51;;;;;;;1999.90;999.90;;;;;;;14.73;93.83;95834.50;5031997;28;20225;-75
2021/09/01 04:39:18;;;;;;;1999.90;999.90;;;;;;;14.97;93.01;95830.31;5031681;28;20578;-74
2021/09/01 04:41:45;;;;;;;1999.90;999.90;;;;;;;15.14;91.50;95839.97;5031660;28;20205;-74
2021/09/01 04:44:12;;;;;;;1999.90;999.90;;;;;;;15.24;90.64;95838.84;5031702;28;20213;-73
2021/09/01 04:46:39;;;;;;;1999.90;999.90;;;;;;;15.21;91.17;95844.69;5031650;28;20200;-75
2021/09/01 04:49:06;;;;;;;1999.90;999.90;;;;;;;15.20;90.98;95838.69;5031615;28;20227;-74
2021/09/01 04:51:33;;;;;;;1999.90;999.90;;;;;;;15.11;90.87;95831.94;5031719;28;20578;-74
2021/09/01 04:54:02;;;;;;;1999.90;999.90;;;;;;;14.94;92.05;95827.53;5019563;28;20202;-74
2021/09/01 04:56:29;;;;;;;1999.90;999.90;;;;;;;14.93;93.31;95831.25;4995004;28;20679;-74
2021/09/01 04:58:56;;;;;;;1999.90;999.90;;;;;;;14.94;94.15;95833.53;4991905;28;20245;-74
2021/09/01 05:01:24;;;;;;;1999.90;999.90;;;;;;;14.99;95.41;95832.63;4992278;28;20234;-74
2021/09/01 05:03:51;;;;;;;1999.90;999.90;;;;;;;15.05;95.93;95841.81;4992028;28;20204;-74
2021/09/01 05:06:18;;;;;;;1999.90;999.90;;;;;;;15.37;96.80;95843.09;4992058;28;20289;-74
2021/09/01 05:08:45;;;;;;;1999.90;999.90;;;;;;;15.55;98.12;95839.34;4992129;28;20230;-74
2021/09/01 05:11:14;;;;;;;1999.90;999.90;;;;;;;15.67;95.14;95841.28;5010326;28;20228;-74
2021/09/01 05:13:41;;;;;;;1999.90;999.90;;;;;;;15.75;91.44;95840.47;5031034;28;20240;-75
2021/09/01 05:16:08;;;;;;;1999.90;999.90;;;;;;;15.92;90.17;95849.00;5030908;28;20292;-74
2021/09/01 05:18:35;;;;;;;1999.90;999.90;;;;;;;16.02;88.84;95850.50;5031015;28;20198;-74
2021/09/01 05:21:05;;;;;;;1999.90;999.90;;;;;;;16.15;88.07;95854.72;5030996;28;20194;-74
2021/09/01 05:23:34;;;;;;;1999.90;999.90;;;;;;;16.25;86.81;95856.94;5031080;28;20202;-74
2021/09/01 05:26:04;;;;;;;1999.90;999.90;;;;;;;16.21;86.62;95855.28;5030784;28;20205;-74
2021/09/01 05:28:38;;;;;;;1999.90;999.90;;;;;;;16.36;87.29;95855.50;5030842;28;20209;-74
2021/09/01 05:31:08;;;;;;;1999.90;999.90;;;;;;;16.28;87.54;95847.69;5030952;28;20182;-73
2021/09/01 05:33:38;;;;;;;1999.90;999.90;;;;;;;16.33;88.42;95853.50;5030670;28;20205;-75
2021/09/01 05:36:06;;;;;;;1999.90;999.90;;;;;;;16.34;89.68;95854.25;5030903;28;20624;-75
2021/09/01 05:38:34;;;;;;;1999.90;999.90;;;;;;;16.38;90.50;95849.94;5030788;28;20212;-75
2021/09/01 05:41:03;;;;;;;1999.90;999.90;;;;;;;16.58;89.65;95851.00;5011726;28;20199;-75
2021/09/01 05:43:32;;;;;;;1999.90;999.90;;;;;;;16.75;88.70;95846.38;5010813;28;20208;-76
2021/09/01 05:45:59;;;;;;;1999.90;999.90;;;;;;;16.80;86.28;95842.78;5010561;28;20194;-76
2021/09/01 05:48:28;;;;;;;1999.90;999.90;;;;;;;17.01;83.43;95846.13;5021378;28;20308;-75
2021/09/01 05:50:57;;;;;;;1999.90;999.90;;;;;;;17.30;81.38;95854.91;5030618;28;20285;-74
2021/09/01 05:53:24;;;;;;;1999.90;999.90;;;;;;;17.45;81.23;95854.28;5030706;28;20209;-73
2021/09/01 05:55:53;;;;;;;1999.90;999.90;;;;;;;17.45;80.95;95849.03;5030396;28;20684;-75
2021/09/01 05:58:21;;;;;;;1999.90;999.90;;;;;;;17.52;81.76;95849.25;5030218;28;20200;-75
2021/09/01 06:00:55;;;;;;;1999.90;999.90;;;;;;;17.54;82.55;95852.31;5030216;28;20697;-74
2021/09/01 06:03:26;;;;;;;1999.90;999.90;;;;;;;17.69;81.98;95850.91;5030544;28;20275;-76
2021/09/01 06:05:57;;;;;;;1999.90;999.90;;;;;;;17.62;83.26;95854.09;5030375;28;20582;-74
2021/09/01 06:08:32;;;;;;;1999.90;999.90;;;;;;;17.85;84.39;95852.56;5030323;28;20768;-74
2021/09/01 06:11:01;;;;;;;1999.90;999.90;;;;;;;18.13;83.09;95857.13;5017960;28;20328;-74
2021/09/01 06:13:29;;;;;;;1999.90;999.90;;;;;;;18.21;82.15;95853.59;5010438;28;20292;-75
2021/09/01 06:15:57;;;;;;;1999.90;999.90;;;;;;;18.32;82.45;95854.69;5010731;28;20202;-75
2021/09/01 06:18:25;;;;;;;1999.90;999.90;;;;;;;18.62;81.67;95849.88;5010371;28;20194;-75
2021/09/01 06:20:54;;;;;;;1999.90;999.90;;;;;;;18.97;81.27;95847.41;5010386;28;20200;-75
2021/09/01 06:23:21;;;;;;;1999.90;999.90;;;;;;;19.43;78.15;95845.94;5010555;28;20206;-75
2021/09/01 06:25:49;;;;;;;1999.90;999.90;;;;;;;19.40;78.03;95849.22;5010333;28;20210;-75
2021/09/01 06:28:16;;;;;;;1999.90;999.90;;;;;;;19.44;76.57;95857.97;5010213;28;20228;-74
2021/09/01 06:30:43;;;;;;;1999.90;999.90;;;;;;;19.47;76.37;95852.84;5010101;28;20198;-74
2021/09/01 06:33:12;;;;;;;1999.90;999.90;;;;;;;19.69;76.33;95857.50;5010233;28;20248;-74
2021/09/01 06:35:39;;;;;;;1999.90;999.90;;;;;;;19.66;76.66;95844.22;5010176;28;20202;-74
2021/09/01 06:38:09;;;;;;;1999.90;999.90;;;;;;;19.85;76.60;95854.06;5010147;28;20679;-75
2021/09/01 06:40:36;;;;;;;1999.90;999.90;;;;;;;19.89;75.99;95847.00;5010252;28;20705;-74
2021/09/01 06:43:03;;;;;;;1999.90;999.90;;;;;;;19.52;77.45;95842.03;5010371;28;20714;-74
2021/09/01 06:45:30;;;;;;;1999.90;999.90;;;;;;;19.48;79.40;95843.81;5010572;28;20222;-75
2021/09/01 06:47:58;;;;;;;1999.90;999.90;;;;;;;19.51;79.54;95840.50;5010617;28;20583;-75
2021/09/01 06:50:28;;;;;;;1999.90;999.90;;;;;;;19.77;80.08;95842.59;5010305;28;20285;-75
2021/09/01 06:52:56;;;;;;;1999.90;999.90;;;;;;;20.10;76.49;95847.47;5009925;28;20662;-75
2021/09/01 06:55:23;;;;;;;1999.90;999.90;;;;;;;20.40;74.42;95847.72;5010115;28;20205;-74
2021/09/01 06:57:50;;;;;;;1999.90;999.90;;;;;;;20.86;72.10;95849.38;5010146;28;20199;-74
2021/09/01 07:00:20;;;;;;;1999.90;999.90;;;;;;;20.84;70.31;95864.03;5009686;28;20206;-73
2021/09/01 07:02:47;;;;;;;1999.90;999.90;;;;;;;20.88;70.36;95863.00;5010257;28;20207;-73
2021/09/01 07:05:17;;;;;;;1999.90;999.90;;;;;;;21.11;68.37;95859.63;5009855;28;20206;-74
2021/09/01 07:07:46;;;;;;;1999.90;999.90;;;;;;;21.37;70.29;95863.13;5009924;28;20687;-74
2021/09/01 07:10:14;;;;;;;1999.90;999.90;;;;;;;21.84;67.99;95869.91;5009547;28;20277;-73
2021/09/01 07:12:42;;;;;;;1999.90;999.90;;;;;;;22.13;66.03;95865.78;5009968;28;20209;-74
2021/09/01 07:15:10;;;;;;;1999.90;999.90;;;;;;;22.07;63.91;95860.03;5010137;28;20207;-74
2021/09/01 07:17:37;;;;;;;1999.90;999.90;;;;;;;21.86;66.18;95847.28;5009769;28;20202;-74
2021/09/01 07:20:06;;;;;;;1999.90;999.90;;;;;;;21.72;64.95;95859.50;5010719;28;20738;-73
2021/09/01 07:22:33;;;;;;;1999.90;999.90;;;;;;;21.48;65.27;95858.78;5013486;28;20215;-73
2021/09/01 07:25:01;;;;;;;1999.90;999.90;;;;;;;21.55;65.42;95854.72;5013643;28;20209;-74
2021/09/01 07:27:29;;;;;;;1999.90;999.90;;;;;;;21.50;65.36;95852.38;5013278;28;20194;-74
2021/09/01 07:29:56;;;;;;;1999.90;999.90;;;;;;;21.21;66.84;95849.28;5013617;28;20606;-75
2021/09/01 07:32:23;;;;;;;1999.90;999.90;;;;;;;20.82;68.85;95853.81;5013289;28;20289;-74
2021/09/01 07:34:50;;;;;;;1999.90;999.90;;;;;;;20.47;69.67;95856.53;5013302;28;20202;-74
2021/09/01 07:37:18;;;;;;;1999.90;999.90;;;;;;;20.44;70.22;95851.97;5013232;28;20205;-75
2021/09/01 07:39:46;;;;;;;1999.90;999.90;;;;;;;20.41;70.10;95850.03;5013042;28;20582;-73
2021/09/01 07:42:14;;;;;;;1999.90;999.90;;;;;;;20.56;70.30;95843.91;5012874;28;20203;-73
2021/09/01 07:44:42;;;;;;;1999.90;999.90;;;;;;;20.93;70.47;95838.16;5010910;28;20220;-73
2021/09/01 07:47:09;;;;;;;1999.90;999.90;;;;;;;21.52;70.04;95831.63;5013327;28;20209;-73
2021/09/01 07:49:36;;;;;;;1999.90;999.90;;;;;;;21.63;66.65;95845.75;5032478;28;20225;-74
2021/09/01 07:52:05;;;;;;;1999.90;999.90;;;;;;;21.93;65.35;95843.94;5032552;28;20815;-74
2021/09/01 07:54:32;;;;;;;1999.90;999.90;;;;;;;22.12;64.89;95838.56;5032820;28;20198;-76
2021/09/01 07:56:59;;;;;;;1999.90;999.90;;;;;;;22.13;64.38;95845.38;5032911;28;20201;-74
2021/09/01 07:59:28;;;;;;;1999.90;999.90;;;;;;;22.13;62.56;95845.38;5032563;28;20214;-74
2021/09/01 08:01:55;;;;;;;1999.90;999.90;;;;;;;22.24;64.27;95851.59;5032646;28;20201;-73
2021/09/01 08:04:23;;;;;;;1999.90;999.90;;;;;;;22.26;63.84;95844.06;5032331;28;20611;-74
2021/09/01 08:06:51;;;;;;;1999.90;999.90;;;;;;;21.94;63.54;95842.09;5032483;28;20210;-75
2021/09/01 08:09:20;;;;;;;1999.90;999.90;;;;;;;22.02;63.84;95839.16;5031776;28;20228;-74
2021/09/01 08:11:47;;;;;;;1999.90;999.90;;;;;;;22.16;63.38;95836.75;5013572;28;20201;-73
2021/09/01 08:14:14;;;;;;;1999.90;999.90;;;;;;;22.38;63.38;95831.69;5012267;28;20298;-74
2021/09/01 08:16:43;;;;;;;1999.90;999.90;;;;;;;22.79;60.85;95833.34;5012831;28;20205;-75
2021/09/01 08:19:10;;;;;;;1999.90;999.90;;;;;;;22.96;60.98;95824.03;5012216;28;20194;-74
2021/09/01 08:21:38;;;;;;;1999.90;999.90;;;;;;;22.94;59.34;95835.00;5012258;28;20206;-75
2021/09/01 08:24:06;;;;;;;1999.90;999.90;;;;;;;22.78;59.71;95829.16;5012382;28;20201;-74
2021/09/01 08:26:33;;;;;;;1999.90;999.90;;;;;;;23.04;59.00;95826.38;5012198;28;20622;-74
2021/09/01 08:29:00;;;;;;;1999.90;999.90;;;;;;;22.96;60.80;95824.81;5012029;28;20233;-74
2021/09/01 08:31:27;;;;;;;1999.90;999.90;;;;;;;23.33;60.35;95823.97;5011188;28;20202;-74
2021/09/01 08:33:56;;;;;;;1999.90;999.90;;;;;;;23.31;58.97;95832.31;5012465;28;20209;-75
2021/09/01 08:36:23;;;;;;;1999.90;999.90;;;;;;;22.84;56.87;95830.34;5011748;28;20198;-74
2021/09/01 08:38:50;;;;;;;1999.90;999.90;;;;;;;22.78;57.99;95826.50;5011725;28;20199;-74
2021/09/01 08:41:18;;;;;;;1999.90;999.90;;;;;;;22.69;59.79;95833.94;5012396;28;20306;-74
2021/09/01 08:43:46;;;;;;;1999.90;999.90;;;;;;;22.63;59.56;95830.09;5011815;28;20695;-74
2021/09/01 08:46:13;;;;;;;1999.90;999.90;;;;;;;23.02;59.06;95815.38;5011976;28;20203;-74
2021/09/01 08:48:42;;;;;;;1999.90;999.90;;;;;;;22.99;58.87;95820.66;5024496;28;20208;-75
2021/09/01 08:51:11;;;;;;;1999.90;999.90;;;;;;;22.70;58.37;95824.88;5031606;28;20575;-74
2021/09/01 08:53:39;;;;;;;1999.90;999.90;;;;;;;23.00;58.47;95814.22;5031159;28;20577;-74
2021/09/01 08:56:08;;;;;;;1999.90;999.90;;;;;;;22.78;57.77;95807.94;5031376;28;20670;-72
2021/09/01 08:58:35;;;;;;;1999.90;999.90;;;;;;;22.74;58.62;95823.06;5031245;28;20208;-74
2021/09/01 09:01:02;;;;;;;1999.90;999.90;;;;;;;22.53;59.90;95820.13;5031258;28;20294;-75
2021/09/01 09:03:29;;;;;;;1999.90;999.90;;;;;;;22.56;57.79;95819.44;5031485;28;20202;-74
2021/09/01 09:06:04;;;;;;;1999.90;999.90;;;;;;;22.43;57.49;95813.59;5031513;28;20197;-74
2021/09/01 09:08:34;;;;;;;1999.90;999.90;;;;;;;22.78;57.14;95815.91;5031372;28;20196;-75
2021/09/01 09:11:01;;;;;;;1999.90;999.90;;;;;;;23.10;58.19;95803.72;5018416;28;20235;-74
2021/09/01 09:13:33;;;;;;;1999.90;999.90;;;;;;;23.24;56.13;95805.72;5011235;28;20198;-75
2021/09/01 09:16:07;;;;;;;1999.90;999.90;;;;;;;23.30;55.19;95812.22;5011246;28;20222;-75
2021/09/01 09:18:34;;;;;;;1999.90;999.90;;;;;;;23.30;57.76;95811.47;5011534;28;20183;-75
2021/09/01 09:21:13;;;;;;;1999.90;999.90;;;;;;;23.19;56.08;95811.38;5011346;28;20210;-75
2021/09/01 09:23:42;;;;;;;1999.90;999.90;;;;;;;23.22;55.33;95807.19;5011077;28;20238;-75
2021/09/01 09:26:26;;;;;;;1999.90;999.90;;;;;;;22.88;55.43;95804.63;5011181;28;20213;-74
2021/09/01 09:29:06;;;;;;;1999.90;999.90;;;;;;;22.76;55.33;95799.63;5011349;28;20195;-74
2021/09/01 09:31:33;;;;;;;1999.90;999.90;;;;;;;22.67;55.17;95809.69;5011313;28;20206;-74
2021/09/01 09:34:05;;;;;;;1999.90;999.90;;;;;;;22.92;56.57;95812.63;5011405;28;20214;-75
2021/09/01 09:36:33;;;;;;;1999.90;999.90;;;;;;;23.04;56.01;95807.81;5011006;28;20199;-74
2021/09/01 09:39:01;;;;;;;1999.90;999.90;;;;;;;23.08;55.61;95805.19;5010534;28;20202;-74
2021/09/01 09:41:29;;;;;;;1999.90;999.90;;;;;;;23.40;55.04;95800.16;5011095;28;20252;-73
2021/09/01 09:43:58;;;;;;;1999.90;999.90;;;;;;;23.44;55.86;95803.59;5010528;28;20285;-72
2021/09/01 09:46:27;;;;;;;1999.90;999.90;;;;;;;23.63;54.35;95797.31;5010705;28;20202;-74
2021/09/01 09:48:54;;;;;;;1999.90;999.90;;;;;;;23.36;53.44;95807.34;5010875;28;20199;-74
2021/09/01 09:51:38;;;;;;;1999.90;999.90;;;;;;;23.02;56.62;95799.47;5011016;28;20202;-74
2021/09/01 09:54:17;;;;;;;1999.90;999.90;;;;;;;23.51;55.21;95783.22;5011016;28;20190;-73
2021/09/01 09:56:45;;;;;;;1999.90;999.90;;;;;;;23.81;52.81;95790.97;5010808;28;20186;-74
2021/09/01 09:59:16;;;;;;;1999.90;999.90;;;;;;;23.72;49.22;95787.91;5010330;28;20206;-74
2021/09/01 10:01:44;;;;;;;1999.90;999.90;;;;;;;23.92;49.38;95797.13;5010399;28;20193;-74
2021/09/01 10:04:12;;;;;;;1999.90;999.90;;;;;;;23.25;49.63;95786.03;5010437;28;20707;-74
2021/09/01 10:06:39;;;;;;;1999.90;999.90;;;;;;;23.06;48.73;95792.28;5010847;28;20198;-74
2021/09/01 10:09:06;;;;;;;1999.90;999.90;;;;;;;23.09;50.12;95793.47;5010278;28;20202;-75
2021/09/01 10:11:37;;;;;;;1999.90;999.90;;;;;;;23.21;49.82;95792.44;5010108;28;20202;-73
2021/09/01 10:14:06;;;;;;;1999.90;999.90;;;;;;;23.75;51.51;95787.16;5010293;28;20640;-74
2021/09/01 10:16:36;;;;;;;1999.90;999.90;;;;;;;24.10;53.13;95791.91;5010267;28;20679;-74
2021/09/01 10:19:13;;;;;;;1999.90;999.90;;;;;;;23.84;50.61;95798.22;5009695;28;20202;-74
2021/09/01 10:21:42;;;;;;;1999.90;999.90;;;;;;;23.42;49.37;95795.25;5010290;28;20635;-74
2021/09/01 10:24:21;;;;;;;1999.90;999.90;;;;;;;23.18;52.25;95794.69;5010285;28;20198;-74
2021/09/01 10:27:08;;;;;;;1999.90;999.90;;;;;;;23.03;51.20;95800.22;5010416;28;20198;-74
2021/09/01 10:29:44;;;;;;;1999.90;999.90;;;;;;;22.97;50.54;95802.44;5010295;28;20683;-74
2021/09/01 10:32:29;;;;;;;1999.90;999.90;;;;;;;22.90;52.34;95791.03;5010173;28;20190;-74
2021/09/01 10:35:30;;;;;;;1999.90;999.90;;;;;;;23.31;50.06;95781.91;5010356;28;20209;-75
2021/09/01 10:37:59;;;;;;;1999.90;999.90;;;;;;;23.70;48.72;95782.22;5010269;28;20210;-74
2021/09/01 10:40:55;;;;;;;1999.90;999.90;;;;;;;23.73;49.74;95788.66;5010501;28;20209;-74
2021/09/01 10:43:24;;;;;;;1999.90;999.90;;;;;;;23.80;49.49;95789.47;5010265;28;20205;-74
2021/09/01 10:45:57;;;;;;;1999.90;999.90;;;;;;;23.81;47.97;95782.28;5010274;28;20601;-74
2021/09/01 10:48:25;;;;;;;1999.90;999.90;;;;;;;24.07;49.09;95776.69;5020430;28;20197;-75
2021/09/01 10:50:52;;;;;;;1999.90;999.90;;;;;;;24.02;50.89;95785.78;5029956;28;20306;-75
2021/09/01 10:53:23;;;;;;;1999.90;999.90;;;;;;;24.15;48.25;95788.13;5030073;28;20294;-74
2021/09/01 10:56:03;;;;;;;1999.90;999.90;;;;;;;24.16;49.24;95782.44;5031950;28;20186;-74
2021/09/01 10:58:37;;;;;;;1999.90;999.90;;;;;;;24.10;46.73;95793.81;5033656;28;20276;-75